createdAt,value
2022-11-26T00:09:54.991Z,2.27
2022-11-26T00:12:57.487Z,1.83
2022-11-26T00:15:58.941Z,1.50
2022-11-26T00:19:00.390Z,1.90
2022-11-26T00:22:02.150Z,1.70
2022-11-26T00:25:03.858Z,1.65
2022-11-26T00:28:23.121Z,1.65
2022-11-26T00:31:24.833Z,1.40
2022-11-26T00:34:26.392Z,1.30
2022-11-26T00:37:35.387Z,1.50
2022-11-26T00:40:36.846Z,1.70
2022-11-26T00:43:38.374Z,1.77
2022-11-26T00:46:39.946Z,1.20
2022-11-26T00:49:41.502Z,1.42
2022-11-26T00:52:44.033Z,1.23
2022-11-26T00:55:48.092Z,1.42
2022-11-26T00:58:53.074Z,1.38
2022-11-26T01:01:54.755Z,1.30
2022-11-26T01:04:56.333Z,1.13
2022-11-26T01:08:00.770Z,1.10
2022-11-26T01:11:04.703Z,1.20
2022-11-26T01:14:06.869Z,1.15
2022-11-26T01:17:11.531Z,1.27
2022-11-26T01:20:33.418Z,1.10
2022-11-26T01:23:34.899Z,1.10
2022-11-26T01:26:44.223Z,1.10
2022-11-26T01:29:45.888Z,1.27
2022-11-26T01:32:48.782Z,1.45
2022-11-26T01:35:50.255Z,1.13
2022-11-26T01:38:53.234Z,1.10
2022-11-26T01:42:15.883Z,1.20
2022-11-26T01:45:20.509Z,1.10
2022-11-26T01:48:31.500Z,1.00
2022-11-26T01:51:33.198Z,1.13
2022-11-26T01:54:38.322Z,1.05
2022-11-26T01:57:40.019Z,0.90
2022-11-26T02:00:41.995Z,1.30
2022-11-26T02:04:20.842Z,1.15
2022-11-26T02:07:22.413Z,1.10
2022-11-26T02:10:23.973Z,1.08
2022-11-26T02:13:26.516Z,1.00
2022-11-26T02:16:37.446Z,0.90
2022-11-26T02:20:13.220Z,1.30
2022-11-26T02:23:27.062Z,1.00
2022-11-26T02:26:56.207Z,0.90
2022-11-26T02:30:03.603Z,1.00
2022-11-26T02:33:31.082Z,0.93
2022-11-26T02:36:38.641Z,0.90
2022-11-26T02:39:40.267Z,0.90
2022-11-26T02:42:41.941Z,1.40
2022-11-26T02:45:47.517Z,2.00
2022-11-26T02:48:51.834Z,1.90
2022-11-26T02:51:57.407Z,2.15
2022-11-26T02:55:01.274Z,1.52
2022-11-26T02:58:04.112Z,1.75
2022-11-26T03:01:11.895Z,1.65
